sensor_id;sensor_type;location;lat;lon;timestamp;P1;durP1;ratioP1;P2;durP2;ratioP2
25731;SDS011;13585;50.864;4.406;2022-12-24T00:02:23;9.63;;;2.95;;
25731;SDS011;13585;50.864;4.406;2022-12-24T00:04:49;9.38;;;3.35;;
25731;SDS011;13585;50.864;4.406;2022-12-24T00:07:17;8.25;;;2.53;;
25731;SDS011;13585;50.864;4.406;2022-12-24T00:09:49;10.13;;;2.92;;
25731;SDS011;13585;50.864;4.406;2022-12-24T00:12:14;10.18;;;3.03;;
25731;SDS011;13585;50.864;4.406;2022-12-24T00:14:40;7.95;;;2.90;;
25731;SDS011;13585;50.864;4.406;2022-12-24T00:17:24;8.95;;;2.53;;
25731;SDS011;13585;50.864;4.406;2022-12-24T00:19:56;5.85;;;2.50;;
25731;SDS011;13585;50.864;4.406;2022-12-24T00:22:39;7.60;;;2.50;;
25731;SDS011;13585;50.864;4.406;2022-12-24T00:25:11;12.23;;;3.10;;
25731;SDS011;13585;50.864;4.406;2022-12-24T00:27:37;10.13;;;2.97;;
25731;SDS011;13585;50.864;4.406;2022-12-24T00:30:05;9.25;;;2.63;;
25731;SDS011;13585;50.864;4.406;2022-12-24T00:32:34;9.43;;;2.75;;
25731;SDS011;13585;50.864;4.406;2022-12-24T00:35:02;9.00;;;2.70;;
25731;SDS011;13585;50.864;4.406;2022-12-24T00:37:40;9.98;;;2.75;;
25731;SDS011;13585;50.864;4.406;2022-12-24T00:49:38;10.82;;;3.15;;
25731;SDS011;13585;50.864;4.406;2022-12-24T00:52:23;9.40;;;2.85;;
25731;SDS011;13585;50.864;4.406;2022-12-24T00:55:07;7.88;;;2.65;;
25731;SDS011;13585;50.864;4.406;2022-12-24T00:58:02;6.35;;;2.35;;
25731;SDS011;13585;50.864;4.406;2022-12-24T01:00:28;8.77;;;2.63;;
25731;SDS011;13585;50.864;4.406;2022-12-24T01:02:54;7.65;;;2.78;;
25731;SDS011;13585;50.864;4.406;2022-12-24T01:05:19;6.80;;;2.45;;
25731;SDS011;13585;50.864;4.406;2022-12-24T01:08:37;9.07;;;2.70;;
25731;SDS011;13585;50.864;4.406;2022-12-24T01:11:03;8.88;;;2.92;;
25731;SDS011;13585;50.864;4.406;2022-12-24T01:13:35;9.18;;;2.80;;
25731;SDS011;13585;50.864;4.406;2022-12-24T01:16:19;7.47;;;2.72;;
25731;SDS011;13585;50.864;4.406;2022-12-24T01:18:45;10.27;;;2.70;;
25731;SDS011;13585;50.864;4.406;2022-12-24T01:21:11;7.32;;;2.55;;
25731;SDS011;13585;50.864;4.406;2022-12-24T01:23:42;7.78;;;2.80;;
25731;SDS011;13585;50.864;4.406;2022-12-24T01:28:37;9.95;;;2.65;;
25731;SDS011;13585;50.864;4.406;2022-12-24T01:31:10;6.90;;;2.47;;
25731;SDS011;13585;50.864;4.406;2022-12-24T01:33:41;7.35;;;2.72;;
25731;SDS011;13585;50.864;4.406;2022-12-24T01:36:07;6.60;;;2.88;;
25731;SDS011;13585;50.864;4.406;2022-12-24T01:38:34;7.47;;;2.47;;
25731;SDS011;13585;50.864;4.406;2022-12-24T01:40:59;8.27;;;2.75;;
25731;SDS011;13585;50.864;4.406;2022-12-24T01:43:43;9.05;;;2.88;;
25731;SDS011;13585;50.864;4.406;2022-12-24T01:46:17;8.45;;;2.58;;
25731;SDS011;13585;50.864;4.406;2022-12-24T01:48:52;6.70;;;2.60;;
25731;SDS011;13585;50.864;4.406;2022-12-24T01:52:06;7.93;;;2.83;;
25731;SDS011;13585;50.864;4.406;2022-12-24T01:54:48;8.15;;;2.60;;
25731;SDS011;13585;50.864;4.406;2022-12-24T01:57:27;7.90;;;2.70;;
25731;SDS011;13585;50.864;4.406;2022-12-24T02:00:01;8.85;;;2.85;;
25731;SDS011;13585;50.864;4.406;2022-12-24T02:02:30;7.72;;;2.55;;
25731;SDS011;13585;50.864;4.406;2022-12-24T02:07:28;9.17;;;2.40;;
25731;SDS011;13585;50.864;4.406;2022-12-24T02:09:55;7.43;;;2.83;;
25731;SDS011;13585;50.864;4.406;2022-12-24T02:12:23;7.53;;;2.88;;
25731;SDS011;13585;50.864;4.406;2022-12-24T02:14:54;6.50;;;2.55;;
25731;SDS011;13585;50.864;4.406;2022-12-24T02:19:58;6.43;;;2.25;;
25731;SDS011;13585;50.864;4.406;2022-12-24T02:31:47;6.93;;;2.40;;
25731;SDS011;13585;50.864;4.406;2022-12-24T02:34:36;6.55;;;1.92;;
25731;SDS011;13585;50.864;4.406;2022-12-24T02:37:25;7.65;;;2.40;;
25731;SDS011;13585;50.864;4.406;2022-12-24T02:42:38;8.95;;;2.83;;
25731;SDS011;13585;50.864;4.406;2022-12-24T02:45:10;10.25;;;2.58;;
25731;SDS011;13585;50.864;4.406;2022-12-24T02:47:41;7.22;;;2.42;;
25731;SDS011;13585;50.864;4.406;2022-12-24T02:50:14;8.45;;;2.50;;
25731;SDS011;13585;50.864;4.406;2022-12-24T02:52:42;8.90;;;3.00;;
25731;SDS011;13585;50.864;4.406;2022-12-24T03:00:39;7.63;;;2.70;;
25731;SDS011;13585;50.864;4.406;2022-12-24T03:03:47;9.02;;;2.58;;
25731;SDS011;13585;50.864;4.406;2022-12-24T03:06:36;7.80;;;2.50;;
25731;SDS011;13585;50.864;4.406;2022-12-24T03:11:35;8.43;;;2.65;;
25731;SDS011;13585;50.864;4.406;2022-12-24T03:14:04;7.57;;;2.60;;
25731;SDS011;13585;50.864;4.406;2022-12-24T03:16:30;4.57;;;1.95;;
25731;SDS011;13585;50.864;4.406;2022-12-24T03:18:59;4.88;;;2.03;;
25731;SDS011;13585;50.864;4.406;2022-12-24T03:21:34;7.45;;;2.58;;
25731;SDS011;13585;50.864;4.406;2022-12-24T03:24:15;6.65;;;1.90;;
25731;SDS011;13585;50.864;4.406;2022-12-24T03:26:44;5.93;;;2.05;;
25731;SDS011;13585;50.864;4.406;2022-12-24T03:29:11;6.60;;;2.38;;
25731;SDS011;13585;50.864;4.406;2022-12-24T03:31:43;6.47;;;2.53;;
25731;SDS011;13585;50.864;4.406;2022-12-24T03:34:13;7.03;;;2.30;;
25731;SDS011;13585;50.864;4.406;2022-12-24T03:36:40;5.80;;;2.45;;
25731;SDS011;13585;50.864;4.406;2022-12-24T03:39:06;7.28;;;2.70;;
25731;SDS011;13585;50.864;4.406;2022-12-24T03:41:32;5.18;;;2.20;;
25731;SDS011;13585;50.864;4.406;2022-12-24T03:43:57;6.88;;;2.40;;
25731;SDS011;13585;50.864;4.406;2022-12-24T03:46:47;5.95;;;2.22;;
25731;SDS011;13585;50.864;4.406;2022-12-24T03:49:13;6.13;;;2.08;;
25731;SDS011;13585;50.864;4.406;2022-12-24T03:52:14;8.07;;;2.45;;
25731;SDS011;13585;50.864;4.406;2022-12-24T03:54:42;4.93;;;1.90;;
25731;SDS011;13585;50.864;4.406;2022-12-24T03:57:19;6.18;;;2.03;;
25731;SDS011;13585;50.864;4.406;2022-12-24T03:59:45;7.05;;;2.25;;
25731;SDS011;13585;50.864;4.406;2022-12-24T04:02:13;7.65;;;2.42;;
25731;SDS011;13585;50.864;4.406;2022-12-24T04:04:41;5.88;;;2.42;;
25731;SDS011;13585;50.864;4.406;2022-12-24T04:07:21;6.25;;;2.25;;
25731;SDS011;13585;50.864;4.406;2022-12-24T04:09:56;5.63;;;2.13;;
25731;SDS011;13585;50.864;4.406;2022-12-24T04:12:22;6.22;;;2.00;;
25731;SDS011;13585;50.864;4.406;2022-12-24T04:14:47;5.70;;;1.95;;
25731;SDS011;13585;50.864;4.406;2022-12-24T04:17:23;7.07;;;2.40;;
25731;SDS011;13585;50.864;4.406;2022-12-24T04:19:48;4.90;;;1.98;;
25731;SDS011;13585;50.864;4.406;2022-12-24T04:22:26;7.15;;;2.30;;
25731;SDS011;13585;50.864;4.406;2022-12-24T04:24:51;10.38;;;2.50;;
25731;SDS011;13585;50.864;4.406;2022-12-24T04:27:26;5.65;;;2.03;;
25731;SDS011;13585;50.864;4.406;2022-12-24T04:29:51;6.63;;;2.30;;
25731;SDS011;13585;50.864;4.406;2022-12-24T04:32:17;4.40;;;1.75;;
25731;SDS011;13585;50.864;4.406;2022-12-24T04:34:43;5.32;;;1.80;;
25731;SDS011;13585;50.864;4.406;2022-12-24T04:37:20;5.05;;;2.03;;
25731;SDS011;13585;50.864;4.406;2022-12-24T04:39:46;7.93;;;2.40;;
25731;SDS011;13585;50.864;4.406;2022-12-24T04:42:12;3.90;;;1.75;;
25731;SDS011;13585;50.864;4.406;2022-12-24T04:44:37;5.13;;;2.03;;
25731;SDS011;13585;50.864;4.406;2022-12-24T04:47:03;5.18;;;2.08;;
25731;SDS011;13585;50.864;4.406;2022-12-24T04:49:28;5.22;;;2.13;;
25731;SDS011;13585;50.864;4.406;2022-12-24T04:51:54;5.53;;;2.30;;
25731;SDS011;13585;50.864;4.406;2022-12-24T04:54:23;6.70;;;2.17;;
25731;SDS011;13585;50.864;4.406;2022-12-24T04:56:48;4.82;;;2.00;;
25731;SDS011;13585;50.864;4.406;2022-12-24T04:59:14;5.78;;;2.22;;
25731;SDS011;13585;50.864;4.406;2022-12-24T05:01:39;6.45;;;1.98;;
25731;SDS011;13585;50.864;4.406;2022-12-24T05:04:05;8.45;;;2.38;;
25731;SDS011;13585;50.864;4.406;2022-12-24T05:06:31;5.47;;;1.95;;
25731;SDS011;13585;50.864;4.406;2022-12-24T05:08:57;6.60;;;2.55;;
25731;SDS011;13585;50.864;4.406;2022-12-24T05:11:24;7.28;;;2.28;;
25731;SDS011;13585;50.864;4.406;2022-12-24T05:13:50;4.95;;;1.92;;
25731;SDS011;13585;50.864;4.406;2022-12-24T05:16:16;6.68;;;2.30;;
25731;SDS011;13585;50.864;4.406;2022-12-24T05:18:43;6.07;;;1.95;;
25731;SDS011;13585;50.864;4.406;2022-12-24T05:21:09;5.18;;;1.80;;
25731;SDS011;13585;50.864;4.406;2022-12-24T05:23:38;6.60;;;2.15;;
25731;SDS011;13585;50.864;4.406;2022-12-24T05:26:29;4.60;;;2.20;;
25731;SDS011;13585;50.864;4.406;2022-12-24T05:29:01;6.72;;;2.45;;
25731;SDS011;13585;50.864;4.406;2022-12-24T05:31:28;4.20;;;1.90;;
25731;SDS011;13585;50.864;4.406;2022-12-24T05:33:55;7.22;;;2.38;;
25731;SDS011;13585;50.864;4.406;2022-12-24T05:36:21;6.88;;;2.10;;
25731;SDS011;13585;50.864;4.406;2022-12-24T05:38:47;5.63;;;2.55;;
25731;SDS011;13585;50.864;4.406;2022-12-24T05:41:13;5.85;;;2.50;;
25731;SDS011;13585;50.864;4.406;2022-12-24T05:43:39;7.78;;;2.33;;
25731;SDS011;13585;50.864;4.406;2022-12-24T05:46:06;5.10;;;1.75;;
25731;SDS011;13585;50.864;4.406;2022-12-24T05:48:33;8.38;;;2.35;;
25731;SDS011;13585;50.864;4.406;2022-12-24T05:51:09;7.70;;;2.35;;
25731;SDS011;13585;50.864;4.406;2022-12-24T05:53:36;6.22;;;2.22;;
25731;SDS011;13585;50.864;4.406;2022-12-24T05:56:05;4.75;;;1.90;;
25731;SDS011;13585;50.864;4.406;2022-12-24T05:58:32;4.32;;;2.03;;
25731;SDS011;13585;50.864;4.406;2022-12-24T06:00:59;6.00;;;2.13;;
25731;SDS011;13585;50.864;4.406;2022-12-24T06:03:26;7.05;;;2.15;;
25731;SDS011;13585;50.864;4.406;2022-12-24T06:08:48;6.68;;;2.20;;
25731;SDS011;13585;50.864;4.406;2022-12-24T06:11:15;5.40;;;2.33;;
25731;SDS011;13585;50.864;4.406;2022-12-24T06:13:42;6.50;;;2.22;;
25731;SDS011;13585;50.864;4.406;2022-12-24T06:16:23;5.70;;;1.92;;
25731;SDS011;13585;50.864;4.406;2022-12-24T06:18:49;3.83;;;1.77;;
25731;SDS011;13585;50.864;4.406;2022-12-24T06:21:24;5.53;;;2.00;;
25731;SDS011;13585;50.864;4.406;2022-12-24T06:23:58;5.50;;;2.20;;
25731;SDS011;13585;50.864;4.406;2022-12-24T06:26:24;5.65;;;2.00;;
25731;SDS011;13585;50.864;4.406;2022-12-24T06:28:50;6.93;;;2.05;;
25731;SDS011;13585;50.864;4.406;2022-12-24T06:31:17;5.88;;;2.10;;
25731;SDS011;13585;50.864;4.406;2022-12-24T06:33:44;7.75;;;2.40;;
25731;SDS011;13585;50.864;4.406;2022-12-24T06:36:12;7.70;;;2.30;;
25731;SDS011;13585;50.864;4.406;2022-12-24T06:38:40;5.22;;;2.17;;
25731;SDS011;13585;50.864;4.406;2022-12-24T06:41:06;4.82;;;1.80;;
25731;SDS011;13585;50.864;4.406;2022-12-24T06:43:32;6.18;;;2.10;;
25731;SDS011;13585;50.864;4.406;2022-12-24T06:45:59;6.22;;;2.35;;
25731;SDS011;13585;50.864;4.406;2022-12-24T06:48:37;4.45;;;1.95;;
25731;SDS011;13585;50.864;4.406;2022-12-24T06:51:06;4.70;;;2.10;;
25731;SDS011;13585;50.864;4.406;2022-12-24T06:53:32;3.00;;;1.60;;
25731;SDS011;13585;50.864;4.406;2022-12-24T06:56:07;5.25;;;2.10;;
25731;SDS011;13585;50.864;4.406;2022-12-24T06:58:34;6.15;;;2.13;;
25731;SDS011;13585;50.864;4.406;2022-12-24T07:01:00;4.97;;;1.83;;
25731;SDS011;13585;50.864;4.406;2022-12-24T07:03:30;6.30;;;2.40;;
25731;SDS011;13585;50.864;4.406;2022-12-24T07:05:56;4.75;;;1.90;;
25731;SDS011;13585;50.864;4.406;2022-12-24T07:08:31;6.85;;;2.30;;
25731;SDS011;13585;50.864;4.406;2022-12-24T07:13:26;5.82;;;1.90;;
25731;SDS011;13585;50.864;4.406;2022-12-24T07:16:03;6.35;;;2.10;;
25731;SDS011;13585;50.864;4.406;2022-12-24T07:18:29;35.58;;;13.63;;
25731;SDS011;13585;50.864;4.406;2022-12-24T07:20:55;55.28;;;23.73;;
25731;SDS011;13585;50.864;4.406;2022-12-24T07:23:31;20.95;;;10.02;;
25731;SDS011;13585;50.864;4.406;2022-12-24T07:26:01;19.80;;;9.05;;
25731;SDS011;13585;50.864;4.406;2022-12-24T07:28:47;16.60;;;7.50;;
25731;SDS011;13585;50.864;4.406;2022-12-24T07:31:20;13.45;;;5.63;;
25731;SDS011;13585;50.864;4.406;2022-12-24T07:33:45;10.00;;;5.22;;
25731;SDS011;13585;50.864;4.406;2022-12-24T07:36:26;15.07;;;6.10;;
25731;SDS011;13585;50.864;4.406;2022-12-24T07:38:52;17.40;;;6.05;;
25731;SDS011;13585;50.864;4.406;2022-12-24T07:41:24;15.10;;;6.10;;
25731;SDS011;13585;50.864;4.406;2022-12-24T07:43:50;16.20;;;6.38;;
25731;SDS011;13585;50.864;4.406;2022-12-24T07:46:34;12.57;;;5.72;;
25731;SDS011;13585;50.864;4.406;2022-12-24T07:52:03;14.60;;;6.28;;
25731;SDS011;13585;50.864;4.406;2022-12-24T07:54:29;12.48;;;6.88;;
25731;SDS011;13585;50.864;4.406;2022-12-24T07:56:57;14.43;;;6.63;;
25731;SDS011;13585;50.864;4.406;2022-12-24T07:59:40;12.05;;;5.32;;
25731;SDS011;13585;50.864;4.406;2022-12-24T08:04:58;16.88;;;5.85;;
25731;SDS011;13585;50.864;4.406;2022-12-24T08:07:29;13.10;;;5.55;;
25731;SDS011;13585;50.864;4.406;2022-12-24T08:09:54;16.30;;;6.05;;
25731;SDS011;13585;50.864;4.406;2022-12-24T08:12:29;14.57;;;6.13;;
25731;SDS011;13585;50.864;4.406;2022-12-24T08:14:57;12.95;;;5.35;;
25731;SDS011;13585;50.864;4.406;2022-12-24T08:17:23;13.65;;;5.28;;
25731;SDS011;13585;50.864;4.406;2022-12-24T08:19:58;16.70;;;6.82;;
25731;SDS011;13585;50.864;4.406;2022-12-24T08:22:24;55.67;;;20.88;;
25731;SDS011;13585;50.864;4.406;2022-12-24T08:31:21;19.73;;;8.02;;
25731;SDS011;13585;50.864;4.406;2022-12-24T08:33:46;18.90;;;6.90;;
25731;SDS011;13585;50.864;4.406;2022-12-24T08:38:47;13.85;;;6.18;;
25731;SDS011;13585;50.864;4.406;2022-12-24T08:41:55;15.27;;;5.90;;
25731;SDS011;13585;50.864;4.406;2022-12-24T08:44:36;13.88;;;5.53;;
25731;SDS011;13585;50.864;4.406;2022-12-24T08:47:08;19.77;;;6.10;;
25731;SDS011;13585;50.864;4.406;2022-12-24T08:49:33;15.50;;;6.15;;
25731;SDS011;13585;50.864;4.406;2022-12-24T08:51:59;13.68;;;5.95;;
25731;SDS011;13585;50.864;4.406;2022-12-24T08:54:31;17.98;;;6.68;;
25731;SDS011;13585;50.864;4.406;2022-12-24T08:56:56;13.65;;;5.68;;
25731;SDS011;13585;50.864;4.406;2022-12-24T08:59:25;15.20;;;5.63;;
25731;SDS011;13585;50.864;4.406;2022-12-24T09:02:02;15.27;;;6.25;;
25731;SDS011;13585;50.864;4.406;2022-12-24T09:04:28;17.08;;;5.70;;
25731;SDS011;13585;50.864;4.406;2022-12-24T09:06:53;13.35;;;5.60;;
25731;SDS011;13585;50.864;4.406;2022-12-24T09:09:19;12.73;;;5.60;;
25731;SDS011;13585;50.864;4.406;2022-12-24T09:11:45;18.95;;;5.88;;
25731;SDS011;13585;50.864;4.406;2022-12-24T09:14:10;14.93;;;5.97;;
25731;SDS011;13585;50.864;4.406;2022-12-24T09:16:36;16.25;;;5.80;;
25731;SDS011;13585;50.864;4.406;2022-12-24T09:19:01;13.65;;;5.60;;
25731;SDS011;13585;50.864;4.406;2022-12-24T09:21:27;14.10;;;4.97;;
25731;SDS011;13585;50.864;4.406;2022-12-24T09:23:53;15.38;;;5.78;;
25731;SDS011;13585;50.864;4.406;2022-12-24T09:26:25;14.15;;;5.63;;
25731;SDS011;13585;50.864;4.406;2022-12-24T09:28:54;11.85;;;5.07;;
25731;SDS011;13585;50.864;4.406;2022-12-24T09:31:22;10.80;;;5.07;;
25731;SDS011;13585;50.864;4.406;2022-12-24T09:33:48;14.63;;;5.45;;
25731;SDS011;13585;50.864;4.406;2022-12-24T09:36:15;14.02;;;5.10;;
25731;SDS011;13585;50.864;4.406;2022-12-24T09:38:41;14.73;;;5.45;;
25731;SDS011;13585;50.864;4.406;2022-12-24T09:44:27;14.50;;;4.65;;
25731;SDS011;13585;50.864;4.406;2022-12-24T09:49:52;15.40;;;5.50;;
25731;SDS011;13585;50.864;4.406;2022-12-24T09:52:24;10.57;;;4.40;;
25731;SDS011;13585;50.864;4.406;2022-12-24T09:55:00;11.48;;;5.07;;
25731;SDS011;13585;50.864;4.406;2022-12-24T09:57:33;10.40;;;4.63;;
25731;SDS011;13585;50.864;4.406;2022-12-24T10:02:54;12.32;;;4.80;;
25731;SDS011;13585;50.864;4.406;2022-12-24T10:05:25;13.93;;;4.93;;
25731;SDS011;13585;50.864;4.406;2022-12-24T10:10:51;14.57;;;5.32;;
25731;SDS011;13585;50.864;4.406;2022-12-24T10:13:22;11.70;;;4.20;;
25731;SDS011;13585;50.864;4.406;2022-12-24T10:21:35;14.23;;;4.75;;
25731;SDS011;13585;50.864;4.406;2022-12-24T10:24:19;14.27;;;4.88;;
25731;SDS011;13585;50.864;4.406;2022-12-24T10:26:54;10.68;;;4.10;;
25731;SDS011;13585;50.864;4.406;2022-12-24T10:29:48;11.35;;;4.35;;
25731;SDS011;13585;50.864;4.406;2022-12-24T10:32:24;11.50;;;4.20;;
25731;SDS011;13585;50.864;4.406;2022-12-24T10:34:56;11.25;;;4.57;;
25731;SDS011;13585;50.864;4.406;2022-12-24T10:40:04;11.45;;;4.05;;
25731;SDS011;13585;50.864;4.406;2022-12-24T10:42:34;11.95;;;4.45;;
25731;SDS011;13585;50.864;4.406;2022-12-24T10:45:04;10.68;;;4.05;;
25731;SDS011;13585;50.864;4.406;2022-12-24T10:47:35;11.38;;;4.15;;
25731;SDS011;13585;50.864;4.406;2022-12-24T10:50:09;13.50;;;4.32;;
25731;SDS011;13585;50.864;4.406;2022-12-24T10:52:41;12.40;;;4.00;;
25731;SDS011;13585;50.864;4.406;2022-12-24T10:55:10;10.00;;;3.97;;
25731;SDS011;13585;50.864;4.406;2022-12-24T10:57:59;13.77;;;4.63;;
25731;SDS011;13585;50.864;4.406;2022-12-24T11:00:26;10.27;;;3.75;;
25731;SDS011;13585;50.864;4.406;2022-12-24T11:03:07;10.48;;;4.07;;
25731;SDS011;13585;50.864;4.406;2022-12-24T11:05:58;10.23;;;4.18;;
25731;SDS011;13585;50.864;4.406;2022-12-24T11:08:27;12.18;;;4.07;;
25731;SDS011;13585;50.864;4.406;2022-12-24T11:13:31;13.90;;;4.45;;
25731;SDS011;13585;50.864;4.406;2022-12-24T11:16:27;12.88;;;4.25;;
25731;SDS011;13585;50.864;4.406;2022-12-24T11:18:56;9.95;;;4.00;;
25731;SDS011;13585;50.864;4.406;2022-12-24T11:21:29;12.88;;;4.40;;
25731;SDS011;13585;50.864;4.406;2022-12-24T11:24:07;7.50;;;3.58;;
25731;SDS011;13585;50.864;4.406;2022-12-24T11:26:36;9.85;;;3.53;;
25731;SDS011;13585;50.864;4.406;2022-12-24T11:29:04;9.20;;;3.88;;
25731;SDS011;13585;50.864;4.406;2022-12-24T11:31:30;11.55;;;3.63;;
25731;SDS011;13585;50.864;4.406;2022-12-24T11:33:59;10.20;;;3.97;;
25731;SDS011;13585;50.864;4.406;2022-12-24T11:36:25;15.30;;;4.53;;
25731;SDS011;13585;50.864;4.406;2022-12-24T11:38:54;17.67;;;4.28;;
25731;SDS011;13585;50.864;4.406;2022-12-24T11:41:22;12.05;;;4.15;;
25731;SDS011;13585;50.864;4.406;2022-12-24T11:43:58;10.95;;;3.60;;
25731;SDS011;13585;50.864;4.406;2022-12-24T11:46:40;10.13;;;3.72;;
25731;SDS011;13585;50.864;4.406;2022-12-24T11:52:12;13.35;;;4.05;;
25731;SDS011;13585;50.864;4.406;2022-12-24T11:57:37;11.60;;;4.45;;
25731;SDS011;13585;50.864;4.406;2022-12-24T12:00:17;10.57;;;3.97;;
25731;SDS011;13585;50.864;4.406;2022-12-24T12:02:43;8.27;;;3.30;;
25731;SDS011;13585;50.864;4.406;2022-12-24T12:05:15;9.98;;;3.75;;
25731;SDS011;13585;50.864;4.406;2022-12-24T12:07:45;10.75;;;3.50;;
25731;SDS011;13585;50.864;4.406;2022-12-24T12:10:18;9.55;;;3.45;;
25731;SDS011;13585;50.864;4.406;2022-12-24T12:12:59;12.23;;;4.38;;
25731;SDS011;13585;50.864;4.406;2022-12-24T12:15:32;10.23;;;3.90;;
25731;SDS011;13585;50.864;4.406;2022-12-24T12:18:08;14.70;;;6.22;;
25731;SDS011;13585;50.864;4.406;2022-12-24T12:20:52;17.20;;;8.20;;
25731;SDS011;13585;50.864;4.406;2022-12-24T12:23:36;13.43;;;7.07;;
25731;SDS011;13585;50.864;4.406;2022-12-24T12:26:26;12.93;;;6.20;;
25731;SDS011;13585;50.864;4.406;2022-12-24T12:32:10;13.95;;;5.78;;
25731;SDS011;13585;50.864;4.406;2022-12-24T12:37:34;15.10;;;8.25;;
25731;SDS011;13585;50.864;4.406;2022-12-24T12:40:16;23.40;;;7.85;;
25731;SDS011;13585;50.864;4.406;2022-12-24T12:42:47;16.92;;;7.70;;
25731;SDS011;13585;50.864;4.406;2022-12-24T12:45:45;17.40;;;6.78;;
25731;SDS011;13585;50.864;4.406;2022-12-24T12:53:52;14.15;;;6.60;;
25731;SDS011;13585;50.864;4.406;2022-12-24T12:56:45;13.80;;;6.90;;
25731;SDS011;13585;50.864;4.406;2022-12-24T13:21:17;15.00;;;6.93;;
25731;SDS011;13585;50.864;4.406;2022-12-24T13:23:46;13.07;;;6.28;;
25731;SDS011;13585;50.864;4.406;2022-12-24T13:26:12;18.92;;;6.68;;
25731;SDS011;13585;50.864;4.406;2022-12-24T13:28:39;13.32;;;7.07;;
25731;SDS011;13585;50.864;4.406;2022-12-24T13:31:21;14.75;;;6.68;;
25731;SDS011;13585;50.864;4.406;2022-12-24T13:33:52;14.82;;;6.82;;
25731;SDS011;13585;50.864;4.406;2022-12-24T13:39:27;15.27;;;6.63;;
25731;SDS011;13585;50.864;4.406;2022-12-24T13:42:11;13.45;;;6.53;;
25731;SDS011;13585;50.864;4.406;2022-12-24T13:47:56;11.90;;;5.95;;
25731;SDS011;13585;50.864;4.406;2022-12-24T13:50:35;15.50;;;6.13;;
25731;SDS011;13585;50.864;4.406;2022-12-24T13:55:49;14.82;;;5.90;;
25731;SDS011;13585;50.864;4.406;2022-12-24T13:58:28;19.42;;;6.60;;
25731;SDS011;13585;50.864;4.406;2022-12-24T14:03:48;14.00;;;6.05;;
25731;SDS011;13585;50.864;4.406;2022-12-24T14:06:27;14.25;;;5.78;;
25731;SDS011;13585;50.864;4.406;2022-12-24T14:09:12;14.10;;;5.82;;
25731;SDS011;13585;50.864;4.406;2022-12-24T14:14:41;13.32;;;5.10;;
25731;SDS011;13585;50.864;4.406;2022-12-24T14:19:55;11.93;;;4.80;;
25731;SDS011;13585;50.864;4.406;2022-12-24T14:25:20;11.70;;;4.68;;
25731;SDS011;13585;50.864;4.406;2022-12-24T14:27:49;10.93;;;4.78;;
25731;SDS011;13585;50.864;4.406;2022-12-24T14:30:26;13.05;;;4.57;;
25731;SDS011;13585;50.864;4.406;2022-12-24T14:32:53;11.10;;;4.47;;
25731;SDS011;13585;50.864;4.406;2022-12-24T14:35:26;14.98;;;5.10;;
25731;SDS011;13585;50.864;4.406;2022-12-24T14:37:58;14.05;;;4.97;;
25731;SDS011;13585;50.864;4.406;2022-12-24T14:40:29;12.57;;;4.75;;
25731;SDS011;13585;50.864;4.406;2022-12-24T14:45:47;11.75;;;4.47;;
25731;SDS011;13585;50.864;4.406;2022-12-24T14:48:35;13.75;;;4.63;;
25731;SDS011;13585;50.864;4.406;2022-12-24T14:51:28;13.93;;;4.78;;
25731;SDS011;13585;50.864;4.406;2022-12-24T14:57:06;9.02;;;3.70;;
25731;SDS011;13585;50.864;4.406;2022-12-24T15:02:24;11.32;;;4.25;;
25731;SDS011;13585;50.864;4.406;2022-12-24T15:05:09;8.55;;;4.03;;
25731;SDS011;13585;50.864;4.406;2022-12-24T15:07:39;13.57;;;4.18;;
25731;SDS011;13585;50.864;4.406;2022-12-24T15:10:23;12.27;;;4.30;;
25731;SDS011;13585;50.864;4.406;2022-12-24T15:12:51;9.32;;;3.53;;
25731;SDS011;13585;50.864;4.406;2022-12-24T15:15:27;12.30;;;4.35;;
25731;SDS011;13585;50.864;4.406;2022-12-24T15:17:56;9.53;;;3.80;;
25731;SDS011;13585;50.864;4.406;2022-12-24T15:20:23;8.82;;;3.92;;
25731;SDS011;13585;50.864;4.406;2022-12-24T15:22:52;11.38;;;4.57;;
25731;SDS011;13585;50.864;4.406;2022-12-24T15:25:32;14.10;;;4.50;;
25731;SDS011;13585;50.864;4.406;2022-12-24T15:27:58;15.40;;;4.40;;
25731;SDS011;13585;50.864;4.406;2022-12-24T15:30:25;13.38;;;4.75;;
25731;SDS011;13585;50.864;4.406;2022-12-24T15:32:53;14.75;;;3.95;;
25731;SDS011;13585;50.864;4.406;2022-12-24T15:35:29;11.70;;;4.70;;
25731;SDS011;13585;50.864;4.406;2022-12-24T15:37:56;11.48;;;3.83;;
25731;SDS011;13585;50.864;4.406;2022-12-24T15:40:23;8.27;;;3.40;;
25731;SDS011;13585;50.864;4.406;2022-12-24T15:42:49;9.27;;;4.10;;
25731;SDS011;13585;50.864;4.406;2022-12-24T15:45:17;15.55;;;4.13;;
25731;SDS011;13585;50.864;4.406;2022-12-24T15:47:59;7.90;;;3.47;;
25731;SDS011;13585;50.864;4.406;2022-12-24T15:50:42;10.52;;;3.90;;
25731;SDS011;13585;50.864;4.406;2022-12-24T15:53:13;10.35;;;3.67;;
25731;SDS011;13585;50.864;4.406;2022-12-24T15:55:44;9.73;;;3.60;;
25731;SDS011;13585;50.864;4.406;2022-12-24T15:58:27;8.48;;;3.42;;
25731;SDS011;13585;50.864;4.406;2022-12-24T16:03:34;9.82;;;3.70;;
25731;SDS011;13585;50.864;4.406;2022-12-24T16:06:09;7.82;;;3.20;;
25731;SDS011;13585;50.864;4.406;2022-12-24T16:08:38;9.30;;;3.88;;
25731;SDS011;13585;50.864;4.406;2022-12-24T16:13:40;10.40;;;3.85;;
25731;SDS011;13585;50.864;4.406;2022-12-24T16:16:09;9.43;;;4.20;;
25731;SDS011;13585;50.864;4.406;2022-12-24T16:18:52;9.02;;;3.40;;
25731;SDS011;13585;50.864;4.406;2022-12-24T16:24:24;9.45;;;3.67;;
25731;SDS011;13585;50.864;4.406;2022-12-24T16:26:59;10.48;;;3.63;;
25731;SDS011;13585;50.864;4.406;2022-12-24T16:29:24;8.80;;;3.25;;
25731;SDS011;13585;50.864;4.406;2022-12-24T16:31:52;11.63;;;3.70;;
25731;SDS011;13585;50.864;4.406;2022-12-24T16:34:22;8.85;;;3.45;;
25731;SDS011;13585;50.864;4.406;2022-12-24T16:36:52;10.52;;;4.03;;
25731;SDS011;13585;50.864;4.406;2022-12-24T16:39:19;10.95;;;3.33;;
25731;SDS011;13585;50.864;4.406;2022-12-24T16:41:55;10.20;;;3.90;;
25731;SDS011;13585;50.864;4.406;2022-12-24T16:44:41;8.52;;;3.20;;
25731;SDS011;13585;50.864;4.406;2022-12-24T16:47:10;8.77;;;3.63;;
25731;SDS011;13585;50.864;4.406;2022-12-24T16:49:38;6.78;;;2.95;;
25731;SDS011;13585;50.864;4.406;2022-12-24T16:52:04;14.70;;;9.32;;
25731;SDS011;13585;50.864;4.406;2022-12-24T16:54:31;32.85;;;19.20;;
25731;SDS011;13585;50.864;4.406;2022-12-24T16:57:07;19.33;;;10.50;;
25731;SDS011;13585;50.864;4.406;2022-12-24T16:59:35;16.40;;;8.70;;
25731;SDS011;13585;50.864;4.406;2022-12-24T17:02:01;15.85;;;7.38;;
25731;SDS011;13585;50.864;4.406;2022-12-24T17:04:29;16.48;;;7.53;;
25731;SDS011;13585;50.864;4.406;2022-12-24T17:06:56;17.13;;;8.05;;
25731;SDS011;13585;50.864;4.406;2022-12-24T17:09:21;18.67;;;7.05;;
25731;SDS011;13585;50.864;4.406;2022-12-24T17:11:47;19.08;;;7.55;;
25731;SDS011;13585;50.864;4.406;2022-12-24T17:14:12;12.70;;;6.90;;
25731;SDS011;13585;50.864;4.406;2022-12-24T17:16:38;12.75;;;6.00;;
25731;SDS011;13585;50.864;4.406;2022-12-24T17:19:04;11.13;;;5.82;;
25731;SDS011;13585;50.864;4.406;2022-12-24T17:21:29;14.95;;;5.88;;
25731;SDS011;13585;50.864;4.406;2022-12-24T17:23:56;14.25;;;6.07;;
25731;SDS011;13585;50.864;4.406;2022-12-24T17:26:22;13.30;;;6.47;;
25731;SDS011;13585;50.864;4.406;2022-12-24T17:28:47;11.93;;;5.53;;
25731;SDS011;13585;50.864;4.406;2022-12-24T17:31:32;13.52;;;6.00;;
25731;SDS011;13585;50.864;4.406;2022-12-24T17:33:58;13.80;;;6.63;;
25731;SDS011;13585;50.864;4.406;2022-12-24T17:36:24;12.35;;;5.57;;
25731;SDS011;13585;50.864;4.406;2022-12-24T17:38:50;11.65;;;5.22;;
25731;SDS011;13585;50.864;4.406;2022-12-24T17:41:16;14.27;;;5.65;;
25731;SDS011;13585;50.864;4.406;2022-12-24T17:43:49;14.85;;;5.13;;
25731;SDS011;13585;50.864;4.406;2022-12-24T17:46:18;12.13;;;5.18;;